createdAt,value
2022-12-06T00:03:25.859Z,38.6
2022-12-06T00:08:26.210Z,38.6
2022-12-06T00:13:26.565Z,38.5
2022-12-06T00:18:27.127Z,38.4
2022-12-06T00:23:31.474Z,38.4
2022-12-06T00:28:31.945Z,38.3
2022-12-06T00:33:32.486Z,38.2
2022-12-06T00:38:33.026Z,38.2
2022-12-06T00:43:33.356Z,38.2
2022-12-06T00:48:33.945Z,38.1
2022-12-06T00:53:34.295Z,38.1
2022-12-06T00:58:34.563Z,38
2022-12-06T01:03:35.286Z,38
2022-12-06T01:08:35.797Z,37.9
2022-12-06T01:13:36.074Z,37.9
2022-12-06T01:18:36.562Z,37.8
2022-12-06T01:23:37.030Z,37.7
2022-12-06T01:28:37.523Z,37.7
2022-12-06T01:33:38.000Z,37.7
2022-12-06T01:38:38.225Z,37.6
2022-12-06T01:43:38.479Z,37.6
2022-12-06T01:48:38.735Z,37.6
2022-12-06T01:53:39.214Z,37.5
2022-12-06T01:58:39.469Z,37.4
2022-12-06T02:03:39.711Z,37.4
2022-12-06T02:08:39.954Z,37.4
2022-12-06T02:13:40.452Z,37.3
2022-12-06T02:18:40.889Z,37.2
2022-12-06T02:23:41.119Z,37.2
2022-12-06T02:28:41.588Z,37.2
2022-12-06T02:33:41.827Z,37.1
2022-12-06T02:38:42.298Z,37.1
2022-12-06T02:43:42.602Z,37.1
2022-12-06T02:48:42.879Z,37
2022-12-06T02:53:43.103Z,37
2022-12-06T02:58:43.353Z,36.9
2022-12-06T03:03:43.621Z,36.9
2022-12-06T03:08:43.882Z,36.9
2022-12-06T03:13:44.143Z,36.8
2022-12-06T03:18:44.435Z,36.7
2022-12-06T03:23:44.924Z,36.7
2022-12-06T03:28:45.176Z,36.7
2022-12-06T03:33:45.403Z,36.6
2022-12-06T03:38:45.678Z,36.6
2022-12-06T03:43:46.217Z,36.6
2022-12-06T03:48:46.701Z,36.6
2022-12-06T03:53:46.952Z,36.5
2022-12-06T03:58:47.435Z,36.4
2022-12-06T04:03:47.993Z,36.4
2022-12-06T04:08:48.316Z,36.4
2022-12-06T04:13:48.610Z,36.4
2022-12-06T04:18:48.843Z,36.3
2022-12-06T04:23:49.313Z,36.3
2022-12-06T04:28:49.804Z,36.2
2022-12-06T04:33:50.048Z,36.2
2022-12-06T04:38:50.257Z,36.2
2022-12-06T04:43:50.485Z,36.1
2022-12-06T04:48:50.736Z,36.1
2022-12-06T04:53:50.967Z,36.1
2022-12-06T04:58:51.179Z,36.1
2022-12-06T05:03:51.685Z,36
2022-12-06T05:08:52.208Z,35.9
2022-12-06T05:13:52.430Z,35.9
2022-12-06T05:18:52.652Z,35.9
2022-12-06T05:23:52.863Z,35.9
2022-12-06T05:28:53.318Z,35.8
2022-12-06T05:33:53.539Z,35.7
2022-12-06T05:38:53.754Z,35.7
2022-12-06T05:43:53.965Z,35.7
2022-12-06T05:48:54.213Z,35.7
2022-12-06T05:53:54.432Z,35.6
2022-12-06T05:58:54.659Z,35.6
2022-12-06T06:03:54.868Z,35.6
2022-12-06T06:08:55.110Z,35.5
2022-12-06T06:13:55.557Z,35.5
2022-12-06T06:18:56.003Z,35.4
2022-12-06T06:23:56.481Z,35.4
2022-12-06T06:28:56.711Z,35.4
2022-12-06T06:33:56.915Z,35.4
2022-12-06T06:38:57.127Z,35.3
2022-12-06T06:43:57.578Z,35.3
2022-12-06T06:48:57.833Z,35.2
2022-12-06T06:53:58.034Z,35.2
2022-12-06T06:58:58.499Z,35.2
2022-12-06T07:03:58.734Z,35.2
2022-12-06T07:09:00.602Z,35.1
2022-12-06T07:14:01.001Z,35.1
2022-12-06T07:19:07.640Z,35.1
2022-12-06T07:24:09.052Z,35.1
2022-12-06T07:29:09.262Z,35
2022-12-06T07:34:09.473Z,35
2022-12-06T07:39:14.427Z,34.9
2022-12-06T07:44:16.855Z,34.9
2022-12-06T07:49:18.700Z,34.9
2022-12-06T07:54:18.877Z,34.8
2022-12-06T07:59:20.723Z,34.8
2022-12-06T08:04:22.584Z,34.8
2022-12-06T08:09:24.487Z,34.7
2022-12-06T08:14:26.327Z,34.7
2022-12-06T08:19:28.374Z,34.7
2022-12-06T08:24:30.447Z,34.7
2022-12-06T08:29:32.677Z,34.7
2022-12-06T08:34:34.737Z,34.6
2022-12-06T08:39:36.585Z,34.6
2022-12-06T08:44:38.426Z,34.6
2022-12-06T08:49:40.494Z,34.6
2022-12-06T08:54:42.542Z,34.5
2022-12-06T08:59:44.636Z,34.5
2022-12-06T09:04:46.563Z,34.4
2022-12-06T09:09:48.430Z,34.4
2022-12-06T09:14:50.488Z,34.4
2022-12-06T09:19:52.354Z,34.4
2022-12-06T09:24:54.164Z,34.4
2022-12-06T09:29:56.030Z,34.3
2022-12-06T09:34:57.866Z,34.3
2022-12-06T09:40:00.020Z,34.2
2022-12-06T09:45:01.979Z,34.2
2022-12-06T09:50:03.818Z,34.2
2022-12-06T09:55:05.653Z,34.2
2022-12-06T10:00:11.532Z,34.2
2022-12-06T10:05:14.014Z,34.1
2022-12-06T10:10:15.879Z,34.1
2022-12-06T10:15:17.739Z,34.1
2022-12-06T10:20:19.497Z,34.1
2022-12-06T10:25:21.287Z,34.1
2022-12-06T10:30:23.226Z,34
2022-12-06T10:35:25.045Z,34
2022-12-06T10:40:27.137Z,34
2022-12-06T10:45:29.114Z,33.9
2022-12-06T10:50:30.931Z,33.9
2022-12-06T10:55:32.764Z,33.9
2022-12-06T11:00:34.813Z,33.9
2022-12-06T11:05:36.628Z,33.9
2022-12-06T11:10:38.677Z,33.8
2022-12-06T11:15:40.512Z,33.8
2022-12-06T11:20:42.296Z,33.8
2022-12-06T11:25:44.135Z,33.7
2022-12-06T11:30:45.939Z,33.7
2022-12-06T11:35:47.729Z,33.7
2022-12-06T11:40:49.518Z,33.7
2022-12-06T11:45:51.394Z,33.6
2022-12-06T11:50:53.168Z,33.6
2022-12-06T11:55:54.996Z,33.6
2022-12-06T12:00:56.791Z,33.6
2022-12-06T12:05:58.573Z,33.6
2022-12-06T12:11:00.596Z,33.6
2022-12-06T12:16:02.430Z,33.5
2022-12-06T12:21:04.460Z,33.5
2022-12-06T12:26:06.227Z,33.5
2022-12-06T12:31:08.060Z,33.4
2022-12-06T12:36:09.851Z,33.4
2022-12-06T12:41:11.653Z,33.4
2022-12-06T12:46:13.578Z,33.4
2022-12-06T12:51:15.430Z,33.4
2022-12-06T12:56:17.219Z,33.3
2022-12-06T13:01:19.072Z,33.3
2022-12-06T13:06:20.929Z,33.3
2022-12-06T13:11:22.692Z,33.2
2022-12-06T13:16:24.561Z,33.2
2022-12-06T13:21:26.363Z,33.1
2022-12-06T13:26:28.134Z,33
2022-12-06T13:31:30.171Z,33
2022-12-06T13:36:31.991Z,32.9
2022-12-06T13:41:33.783Z,32.9
2022-12-06T13:46:35.830Z,32.9
2022-12-06T13:51:37.880Z,32.9
2022-12-06T13:56:39.682Z,32.9
2022-12-06T14:01:41.658Z,32.9
2022-12-06T14:06:43.528Z,32.9
2022-12-06T14:11:45.500Z,32.8
2022-12-06T14:16:47.512Z,32.8
2022-12-06T14:21:49.331Z,32.6
2022-12-06T14:26:51.092Z,32.4
2022-12-06T14:31:53.058Z,32.3
2022-12-06T14:36:54.844Z,32.2
2022-12-06T14:41:56.578Z,32.2
2022-12-06T14:46:58.654Z,32.2
2022-12-06T14:52:00.442Z,32.2
2022-12-06T14:57:02.433Z,32.2
2022-12-06T15:02:04.249Z,32.2
2022-12-06T15:07:06.269Z,32.2
2022-12-06T15:12:08.057Z,32.1
2022-12-06T15:17:10.025Z,32.1
2022-12-06T15:22:11.825Z,32.1
2022-12-06T15:27:13.835Z,32
2022-12-06T15:32:15.862Z,32
2022-12-06T15:42:49.582Z,32
2022-12-06T15:47:51.333Z,31.9
2022-12-06T15:52:53.071Z,31.9
2022-12-06T15:57:54.977Z,31.9
2022-12-06T16:02:56.783Z,31.9
2022-12-06T16:07:58.679Z,31.9
2022-12-06T16:13:00.466Z,31.9
2022-12-06T16:18:02.202Z,31.9
2022-12-06T16:23:03.916Z,31.8
2022-12-06T16:28:05.870Z,31.8
2022-12-06T16:33:07.903Z,31.8
2022-12-06T16:38:09.642Z,31.8
2022-12-06T16:43:11.642Z,31.8
2022-12-06T16:48:13.621Z,31.8
2022-12-06T16:53:15.390Z,31.8
2022-12-06T16:58:17.120Z,31.7
2022-12-06T17:03:18.906Z,31.7
2022-12-06T17:08:22.228Z,31.7
2022-12-06T17:13:24.096Z,31.7
2022-12-06T17:18:25.900Z,34.6
2022-12-06T17:23:26.128Z,37
2022-12-06T17:28:26.650Z,39.7
2022-12-06T17:33:27.269Z,41.2
2022-12-06T17:38:27.878Z,41.4
2022-12-06T17:43:28.473Z,42.5
2022-12-06T17:48:33.517Z,42.9
2022-12-06T17:53:36.478Z,42.9
2022-12-06T17:58:36.905Z,42.9
2022-12-06T18:03:37.396Z,42.9
2022-12-06T18:08:38.100Z,42.8
2022-12-06T18:13:38.786Z,42.9
2022-12-06T18:18:39.446Z,44.1
2022-12-06T18:23:41.015Z,44.2
2022-12-06T18:28:49.540Z,44.2
2022-12-06T18:33:50.016Z,44.2
2022-12-06T18:38:50.749Z,44.2
2022-12-06T18:43:51.417Z,44.2
2022-12-06T18:48:52.140Z,44.2
2022-12-06T18:53:52.615Z,44.1
2022-12-06T18:58:53.080Z,44.1
2022-12-06T19:03:53.816Z,44.1
2022-12-06T19:08:54.523Z,44.1
2022-12-06T19:13:55.258Z,44
2022-12-06T19:18:55.701Z,44
2022-12-06T19:23:56.425Z,43.9
2022-12-06T19:28:57.129Z,43.9
2022-12-06T19:33:57.845Z,43.9
2022-12-06T19:38:58.374Z,43.9
2022-12-06T19:43:58.863Z,43.8
2022-12-06T19:48:59.390Z,43.7
2022-12-06T19:54:00.091Z,43.7
2022-12-06T19:59:00.548Z,43.7
2022-12-06T20:04:01.067Z,43.7
2022-12-06T20:09:01.497Z,43.5
2022-12-06T20:14:01.937Z,42.8
2022-12-06T20:19:02.635Z,42.6
2022-12-06T20:24:03.379Z,42.4
2022-12-06T20:29:04.073Z,41.6
2022-12-06T20:34:04.612Z,36.8
2022-12-06T20:39:05.062Z,35.6
2022-12-06T20:44:05.778Z,35.2
2022-12-06T20:49:06.013Z,35.1
2022-12-06T20:54:06.263Z,35
2022-12-06T20:59:06.743Z,34.9
2022-12-06T21:04:07.205Z,34.9
2022-12-06T21:09:07.788Z,34.7
2022-12-06T21:14:08.417Z,34.7
2022-12-06T21:19:08.841Z,34.7
2022-12-06T21:24:09.276Z,34.6
2022-12-06T21:29:11.341Z,34.5
2022-12-06T21:34:11.739Z,34.4
2022-12-06T21:39:13.819Z,34.4
2022-12-06T21:44:15.872Z,34.4
2022-12-06T21:49:17.938Z,34.3
2022-12-06T21:54:20.048Z,34.2
2022-12-06T21:59:21.848Z,34.2
2022-12-06T22:04:23.872Z,34.1
2022-12-06T22:09:25.703Z,34.1
2022-12-06T22:14:27.931Z,34.1
2022-12-06T22:19:29.782Z,34
2022-12-06T22:24:31.955Z,33.9
2022-12-06T22:29:34.026Z,33.9
2022-12-06T22:34:34.365Z,33.9
2022-12-06T22:39:36.452Z,33.8
2022-12-06T22:44:38.282Z,33.8
2022-12-06T22:49:40.337Z,33.7
2022-12-06T22:54:42.559Z,33.7
2022-12-06T22:59:44.597Z,33.6
2022-12-06T23:04:46.427Z,33.6
2022-12-06T23:09:48.675Z,33.6
2022-12-06T23:14:50.513Z,33.6
2022-12-06T23:19:52.561Z,33.5
2022-12-06T23:24:54.420Z,33.5
2022-12-06T23:29:56.251Z,33.4
2022-12-06T23:34:58.062Z,33.4
2022-12-06T23:40:00.226Z,33.4
2022-12-06T23:45:02.287Z,33.3
2022-12-06T23:50:04.393Z,33.3
2022-12-06T23:55:06.436Z,33.2
